Time;durP1;ratioP1;P1;durP2;ratioP2;P2;SDS_P1;SDS_P2;PMS_P1;PMS_P2;Temp;Humidity;BMP_temperature;BMP_pressure;BME280_temperature;BME280_humidity;BME280_pressure;Samples;Min_cycle;Max_cycle;Signal;HPM_P1;HPM_P2
2022/02/11 00:00:53;;;;;;;0.00;0.00;;;;;;;3.15;70.21;102341.16;7366910;19;20037;-60
2022/02/11 00:08:13;;;;;;;0.00;0.00;;;;;;;3.07;70.26;102354.66;7359186;19;20094;-61
2022/02/11 00:10:38;;;;;;;0.10;0.10;;;;;;;3.05;70.37;102345.13;7359974;19;20007;-60
2022/02/11 00:13:04;;;;;;;0.00;0.00;;;;;;;3.03;70.40;102346.75;7365780;19;20006;-61
2022/02/11 00:15:41;;;;;;;0.00;0.00;;;;;;;3.01;70.95;102338.97;7363245;19;20016;-60
2022/02/11 00:18:09;;;;;;;0.05;0.05;;;;;;;3.02;70.60;102347.59;7359079;19;20007;-61
2022/02/11 00:20:35;;;;;;;0.08;0.08;;;;;;;3.01;70.33;102358.75;7364501;19;20034;-60
2022/02/11 00:23:01;;;;;;;0.10;0.10;;;;;;;3.01;70.51;102361.31;7353358;19;21532;-61
2022/02/11 00:25:26;;;;;;;0.00;0.00;;;;;;;2.99;70.40;102366.44;7365491;19;20525;-60
2022/02/11 00:37:45;;;;;;;0.00;0.00;;;;;;;2.95;71.06;102371.44;7352185;19;20039;-61
2022/02/11 00:40:24;;;;;;;0.08;0.08;;;;;;;2.95;70.96;102374.03;7367291;19;20026;-60
2022/02/11 01:03:59;;;;;;;0.10;0.10;;;;;;;2.99;71.15;102378.44;7371510;19;20028;-60
2022/02/11 01:06:25;;;;;;;0.10;0.10;;;;;;;3.00;70.84;102377.63;7374112;19;20006;-61
2022/02/11 01:08:51;;;;;;;0.00;0.00;;;;;;;2.99;70.86;102383.59;7372218;19;20019;-61
2022/02/11 01:11:24;;;;;;;0.00;0.00;;;;;;;2.99;70.99;102383.59;7374600;19;20339;-60
2022/02/11 01:13:50;;;;;;;0.10;0.10;;;;;;;2.83;70.88;102362.41;7375928;19;20015;-61
2022/02/11 01:16:21;;;;;;;0.00;0.00;;;;;;;2.98;71.10;102381.84;7366668;19;20010;-61
2022/02/11 01:18:54;;;;;;;0.00;0.00;;;;;;;2.97;71.19;102378.41;7379936;19;20022;-60
2022/02/11 01:21:28;;;;;;;0.00;0.00;;;;;;;2.92;71.23;102381.63;7364318;19;20002;-60
2022/02/11 01:24:03;;;;;;;0.00;0.00;;;;;;;2.95;71.24;102390.38;7370028;19;20014;-59
2022/02/11 01:29:22;;;;;;;0.10;0.10;;;;;;;2.98;71.55;102379.28;7371092;19;20014;-60
2022/02/11 01:44:52;;;;;;;0.10;0.10;;;;;;;2.96;71.05;102375.78;7365533;19;20003;-61
2022/02/11 01:52:57;;;;;;;0.10;0.10;;;;;;;2.93;71.12;102381.69;7367316;19;20041;-60
2022/02/11 01:58:34;;;;;;;0.00;0.00;;;;;;;2.90;71.67;102383.31;6840159;19;10001304;-60
2022/02/11 02:24:04;;;;;;;0.00;0.00;;;;;;;2.65;71.20;102384.13;7368176;19;20016;-61
2022/02/11 02:37:08;;;;;;;0.00;0.00;;;;;;;2.71;71.98;102412.69;7366072;19;20049;-60
2022/02/11 02:58:26;;;;;;;0.10;0.10;;;;;;;2.63;71.76;102427.00;7358795;19;20022;-60
2022/02/11 03:52:36;;;;;;;0.00;0.00;;;;;;;2.46;72.80;102416.06;7363957;19;20038;-61
2022/02/11 03:58:19;;;;;;;0.10;0.10;;;;;;;2.50;72.89;102416.25;7363730;19;20033;-61
2022/02/11 04:55:27;;;;;;;0.08;0.08;;;;;;;2.07;73.07;102414.56;7364286;19;20017;-60
2022/02/11 05:00:40;;;;;;;0.00;0.00;;;;;;;2.08;72.95;102415.47;7364774;19;20098;-60
2022/02/11 05:03:07;;;;;;;0.00;0.00;;;;;;;2.19;72.89;102439.97;7356683;19;20129;-61
2022/02/11 05:05:48;;;;;;;0.00;0.00;;;;;;;2.09;72.99;102422.38;7366012;19;20010;-60
2022/02/11 05:08:18;;;;;;;0.10;0.10;;;;;;;2.16;72.84;102442.41;7365533;19;20017;-60
2022/02/11 05:10:45;;;;;;;0.00;0.00;;;;;;;2.04;72.77;102426.47;7363934;19;20078;-60
2022/02/11 05:13:11;;;;;;;0.00;0.00;;;;;;;2.10;72.79;102434.44;7363064;19;20738;-61
2022/02/11 05:15:37;;;;;;;0.10;0.10;;;;;;;2.10;72.82;102442.16;7356383;19;20341;-62
2022/02/11 05:18:03;;;;;;;0.10;0.10;;;;;;;2.09;73.35;102437.84;7361908;19;20007;-60
2022/02/11 05:20:28;;;;;;;0.00;0.00;;;;;;;2.08;73.08;102439.53;7366333;19;20038;-61
2022/02/11 05:22:54;;;;;;;0.10;0.10;;;;;;;2.07;73.44;102439.47;7359088;19;20035;-61
2022/02/11 05:25:19;;;;;;;0.03;0.03;;;;;;;2.07;73.50;102444.59;7363850;19;20003;-61
2022/02/11 05:27:45;;;;;;;0.10;0.10;;;;;;;2.06;73.51;102442.84;7354994;19;20417;-60
2022/02/11 05:30:11;;;;;;;0.00;0.00;;;;;;;2.07;73.22;102449.75;7364011;19;20007;-60
2022/02/11 05:32:37;;;;;;;0.00;0.00;;;;;;;2.05;73.29;102449.72;7358275;19;20973;-61
2022/02/11 05:35:03;;;;;;;0.00;0.00;;;;;;;2.06;73.51;102448.00;7356906;19;20006;-60
2022/02/11 05:37:29;;;;;;;0.10;0.10;;;;;;;2.05;73.61;102446.25;7369488;19;20036;-60
2022/02/11 05:39:54;;;;;;;0.10;0.10;;;;;;;2.05;73.53;102451.41;7367730;19;20014;-61
2022/02/11 05:42:19;;;;;;;0.00;0.00;;;;;;;2.06;73.19;102455.75;7368187;19;20011;-61
2022/02/11 05:44:45;;;;;;;0.10;0.10;;;;;;;2.04;73.62;102447.97;7362261;19;20017;-60
2022/02/11 05:47:10;;;;;;;0.00;0.00;;;;;;;2.05;73.30;102460.03;7364969;19;20015;-61
2022/02/11 05:49:36;;;;;;;0.10;0.10;;;;;;;2.03;73.45;102459.09;7368357;19;20021;-60
2022/02/11 05:52:02;;;;;;;0.00;0.00;;;;;;;2.04;73.34;102454.81;7360324;19;20014;-60
2022/02/11 05:54:28;;;;;;;0.00;0.00;;;;;;;2.03;73.88;102447.91;7368241;19;20117;-60
2022/02/11 05:56:53;;;;;;;0.00;0.00;;;;;;;2.02;73.46;102446.13;7355892;19;20042;-61
2022/02/11 05:59:19;;;;;;;0.00;0.00;;;;;;;1.99;73.61;102443.44;7365276;19;20078;-60
2022/02/11 06:01:44;;;;;;;0.00;0.00;;;;;;;1.98;73.53;102449.41;7359162;19;20019;-61
2022/02/11 06:04:09;;;;;;;0.00;0.00;;;;;;;1.99;73.52;102446.91;7364167;19;20023;-61
2022/02/11 06:06:35;;;;;;;0.10;0.10;;;;;;;1.99;73.51;102444.31;7367666;19;20033;-60
2022/02/11 06:09:00;;;;;;;0.00;0.00;;;;;;;1.93;73.84;102425.16;7372124;19;20041;-60
2022/02/11 06:11:29;;;;;;;0.00;0.00;;;;;;;1.97;73.89;102430.47;7371201;19;20031;-60
2022/02/11 06:13:57;;;;;;;0.10;0.10;;;;;;;1.97;73.45;102433.06;7370134;19;20010;-61
2022/02/11 06:16:23;;;;;;;0.03;0.03;;;;;;;1.97;73.61;102430.47;7371544;19;20433;-60
2022/02/11 06:18:51;;;;;;;0.00;0.00;;;;;;;1.98;73.51;102436.53;7365489;19;20009;-60
2022/02/11 06:21:17;;;;;;;0.00;0.00;;;;;;;1.98;73.64;102440.00;7359352;19;20002;-60
2022/02/11 06:23:43;;;;;;;0.00;0.00;;;;;;;1.99;73.46;102443.44;7361623;19;20007;-61
2022/02/11 06:26:08;;;;;;;0.00;0.00;;;;;;;2.00;73.83;102442.63;7363171;19;20025;-61
2022/02/11 06:28:34;;;;;;;0.10;0.10;;;;;;;2.02;73.75;102438.41;7360493;19;20010;-60
2022/02/11 06:30:59;;;;;;;0.10;0.10;;;;;;;2.02;74.02;102435.81;7363814;19;20029;-60
2022/02/11 06:33:25;;;;;;;0.00;0.00;;;;;;;2.00;73.71;102432.31;7366113;19;20054;-61
2022/02/11 06:35:51;;;;;;;0.10;0.10;;;;;;;2.08;73.33;102436.09;7363193;19;20135;-60
2022/02/11 06:38:17;;;;;;;0.10;0.10;;;;;;;2.10;73.60;102439.59;7360108;19;20010;-60
2022/02/11 06:40:43;;;;;;;0.00;0.00;;;;;;;2.12;73.46;102443.09;7344165;19;20014;-60
2022/02/11 06:43:09;;;;;;;0.00;0.00;;;;;;;2.15;73.62;102445.81;7361806;19;20009;-61
2022/02/11 06:45:34;;;;;;;0.05;0.05;;;;;;;2.16;73.44;102450.13;7361679;19;20011;-61
2022/02/11 06:48:01;;;;;;;0.10;0.10;;;;;;;2.19;73.52;102441.66;7359764;19;20011;-60
2022/02/11 06:50:27;;;;;;;0.03;0.03;;;;;;;2.20;73.47;102452.03;7365463;19;19999;-59
2022/02/11 06:52:55;;;;;;;0.10;0.10;;;;;;;2.22;73.51;102447.78;7364621;19;20018;-61
2022/02/11 06:55:23;;;;;;;0.00;0.00;;;;;;;2.24;73.67;102459.06;7369994;19;20050;-60
2022/02/11 06:57:48;;;;;;;0.10;0.10;;;;;;;2.25;73.42;102455.66;7371177;19;20009;-59
2022/02/11 07:00:15;;;;;;;0.00;0.00;;;;;;;2.28;73.38;102466.09;7372184;19;20417;-60
2022/02/11 07:02:41;;;;;;;0.00;0.00;;;;;;;2.30;73.60;102456.72;7369590;19;20011;-59
2022/02/11 07:05:07;;;;;;;0.10;0.10;;;;;;;2.34;73.69;102468.03;7366136;19;20010;-60
2022/02/11 07:07:33;;;;;;;0.10;0.10;;;;;;;2.37;73.91;102472.41;7360593;19;20015;-61
2022/02/11 07:09:58;;;;;;;0.00;0.00;;;;;;;2.35;74.01;102459.47;7330561;19;27191;-60
2022/02/11 07:12:24;;;;;;;0.03;0.03;;;;;;;2.40;73.58;102465.69;1083822;19;10002167;-60
2022/02/11 07:14:49;;;;;;;0.00;0.00;;;;;;;2.43;73.92;102476.09;7362514;19;20033;-61
2022/02/11 07:17:15;;;;;;;0.00;0.00;;;;;;;2.44;73.71;102477.03;7363631;19;20090;-60
2022/02/11 07:19:40;;;;;;;0.00;0.00;;;;;;;2.45;73.47;102479.66;7365961;19;20026;-60
2022/02/11 07:22:06;;;;;;;0.00;0.00;;;;;;;2.49;73.65;102480.66;7364160;19;20053;-58
2022/02/11 07:24:31;;;;;;;0.10;0.10;;;;;;;2.48;73.74;102473.72;7366105;19;20006;-60
2022/02/11 07:26:58;;;;;;;0.10;0.10;;;;;;;2.42;73.39;102463.16;7365745;19;20092;-60
2022/02/11 07:29:24;;;;;;;0.10;0.10;;;;;;;2.53;73.54;102485.09;7355290;19;20002;-61
2022/02/11 07:31:50;;;;;;;0.00;0.00;;;;;;;2.48;73.66;102474.59;7364549;19;20014;-60
2022/02/11 07:34:16;;;;;;;0.00;0.00;;;;;;;2.55;73.86;102483.47;7361246;19;20581;-60
2022/02/11 07:36:42;;;;;;;0.00;0.00;;;;;;;2.57;73.65;102479.22;7363456;19;20010;-61
2022/02/11 07:39:07;;;;;;;0.00;0.00;;;;;;;2.53;73.57;102474.78;7362562;19;20017;-61
2022/02/11 07:41:33;;;;;;;0.00;0.00;;;;;;;2.61;73.32;102475.97;7356365;19;20014;-60
2022/02/11 07:43:59;;;;;;;0.00;0.00;;;;;;;2.59;73.82;102472.44;7362868;19;20010;-61
2022/02/11 07:46:24;;;;;;;0.00;0.00;;;;;;;2.66;73.74;102479.59;7361536;19;20041;-60
2022/02/11 07:48:50;;;;;;;0.05;0.05;;;;;;;2.68;73.40;102477.94;7367787;19;20106;-60
2022/02/11 07:51:15;;;;;;;0.00;0.00;;;;;;;2.70;73.89;102471.16;7367491;19;20018;-60
2022/02/11 07:53:43;;;;;;;0.00;0.00;;;;;;;2.72;73.40;102477.22;7361270;19;20017;-60
2022/02/11 07:56:08;;;;;;;0.00;0.00;;;;;;;2.74;73.73;102467.88;7361784;19;20006;-60
2022/02/11 07:58:34;;;;;;;0.10;0.10;;;;;;;2.75;73.32;102469.63;7358448;19;20700;-59
2022/02/11 08:01:00;;;;;;;0.00;0.00;;;;;;;2.76;73.45;102467.91;7361629;19;20093;-60
2022/02/11 08:03:26;;;;;;;0.10;0.10;;;;;;;2.76;73.68;102471.38;7353735;19;20105;-59
2022/02/11 08:05:52;;;;;;;0.10;0.10;;;;;;;2.66;73.56;102458.09;7362002;19;20013;-60
2022/02/11 08:08:20;;;;;;;0.00;0.00;;;;;;;2.78;73.51;102474.88;7359999;19;20007;-60
2022/02/11 08:10:46;;;;;;;0.10;0.10;;;;;;;2.78;73.77;102479.16;7364987;19;20010;-60
2022/02/11 08:13:12;;;;;;;0.10;0.10;;;;;;;2.81;73.92;102474.13;7349596;19;20025;-60
2022/02/11 08:15:37;;;;;;;0.00;0.00;;;;;;;2.83;73.47;102468.19;7360497;19;20014;-60
2022/02/11 08:18:03;;;;;;;0.00;0.00;;;;;;;2.83;73.77;102467.31;7358984;19;20014;-60
2022/02/11 08:20:28;;;;;;;0.00;0.00;;;;;;;2.88;73.91;102476.09;7351552;19;20007;-60
2022/02/11 08:22:54;;;;;;;0.00;0.00;;;;;;;2.92;73.92;102477.09;7348023;19;20598;-60
2022/02/11 08:25:19;;;;;;;0.08;0.08;;;;;;;2.93;73.68;102474.56;7350727;19;20006;-60
2022/02/11 08:27:47;;;;;;;0.00;0.00;;;;;;;2.97;73.90;102475.56;7363864;19;20030;-58
2022/02/11 08:30:14;;;;;;;;;;;;;;;3.04;73.45;102467.22;7349567;19;20021;-60
2022/02/11 08:32:40;;;;;;;0.10;0.10;;;;;;;3.05;73.40;102471.59;7359037;19;19928;-60
2022/02/11 08:35:06;;;;;;;0.00;0.00;;;;;;;3.07;73.71;102472.50;7356896;19;20648;-60
2022/02/11 08:37:31;;;;;;;0.00;0.00;;;;;;;3.08;73.26;102466.53;7369104;19;20021;-60
2022/02/11 08:39:57;;;;;;;0.00;0.00;;;;;;;3.15;73.45;102473.69;7365645;19;20078;-60
2022/02/11 08:42:22;;;;;;;0.00;0.00;;;;;;;3.24;73.62;102470.53;7363622;19;20018;-60
2022/02/11 08:44:48;;;;;;;0.00;0.00;;;;;;;3.34;73.80;102467.44;7347078;19;20010;-61
2022/02/11 08:47:15;;;;;;;0.00;0.00;;;;;;;3.45;73.63;102465.22;7366622;19;20014;-60
2022/02/11 08:49:41;;;;;;;0.00;0.00;;;;;;;3.59;73.86;102474.34;7367843;19;20362;-61
2022/02/11 08:52:08;;;;;;;0.00;0.00;;;;;;;3.73;73.74;102473.13;7357954;19;20011;-60
2022/02/11 08:54:34;;;;;;;0.00;0.00;;;;;;;3.85;73.15;102473.53;7359152;19;20006;-61
2022/02/11 08:56:59;;;;;;;0.00;0.00;;;;;;;3.98;72.96;102467.06;7348772;19;20037;-60
2022/02/11 08:59:25;;;;;;;0.00;0.00;;;;;;;4.10;73.23;102469.16;7355510;19;20010;-61
2022/02/11 09:01:50;;;;;;;0.00;0.00;;;;;;;4.22;73.10;102473.84;7359722;19;20014;-60
2022/02/11 09:04:16;;;;;;;0.00;0.00;;;;;;;4.33;73.09;102478.53;7356039;19;20022;-61
2022/02/11 09:06:46;;;;;;;0.10;0.10;;;;;;;4.43;72.61;102479.69;7360503;19;20010;-59
2022/02/11 09:09:13;;;;;;;0.00;0.00;;;;;;;4.49;72.70;102479.00;7360777;19;21304;-60
2022/02/11 09:11:39;;;;;;;0.00;0.00;;;;;;;4.46;72.55;102464.28;7352974;19;20018;-60
2022/02/11 09:14:06;;;;;;;0.00;0.00;;;;;;;4.64;72.11;102479.47;7358897;19;20490;-60
2022/02/11 09:16:32;;;;;;;0.00;0.00;;;;;;;4.70;72.07;102484.81;7368902;19;20006;-61
2022/02/11 09:18:58;;;;;;;0.10;0.10;;;;;;;4.66;72.22;102468.34;7365095;19;20006;-60
2022/02/11 09:21:24;;;;;;;0.10;0.10;;;;;;;4.84;72.08;102486.13;7366694;19;20010;-61
2022/02/11 09:23:49;;;;;;;0.00;0.00;;;;;;;4.90;71.78;102480.22;7370391;19;20342;-60
2022/02/11 09:26:35;;;;;;;0.00;0.00;;;;;;;4.99;72.02;102484.81;3385261;19;10150628;-60
2022/02/11 09:29:05;;;;;;;0.10;0.10;;;;;;;5.04;71.94;102480.63;6052290;19;10001063;-60
2022/02/11 09:31:30;;;;;;;0.10;0.10;;;;;;;5.11;71.78;102479.97;7374476;19;20006;-60
2022/02/11 09:34:03;;;;;;;0.00;0.00;;;;;;;5.18;71.23;102474.16;7377151;19;20587;-60
2022/02/11 09:36:34;;;;;;;0.00;0.00;;;;;;;5.24;71.31;102469.13;7369398;19;20015;-60
2022/02/11 09:39:03;;;;;;;0.00;0.00;;;;;;;5.31;71.02;102462.38;7369288;19;20015;-60
2022/02/11 09:41:30;;;;;;;0.00;0.00;;;;;;;5.53;71.10;102466.47;7358720;19;20031;-61
2022/02/11 09:44:00;;;;;;;0.00;0.00;;;;;;;5.47;70.87;102447.31;7366557;19;20089;-61
2022/02/11 09:46:30;;;;;;;0.00;0.00;;;;;;;5.79;71.03;102470.59;7362800;19;20014;-60
2022/02/11 09:48:55;;;;;;;0.03;0.03;;;;;;;5.92;70.93;102470.06;7361741;19;20015;-61
2022/02/11 09:51:21;;;;;;;0.10;0.10;;;;;;;6.08;70.42;102470.44;7370574;19;20010;-60
2022/02/11 09:53:46;;;;;;;0.00;0.00;;;;;;;6.22;70.49;102476.84;7360543;19;20014;-60
2022/02/11 09:56:12;;;;;;;0.00;0.00;;;;;;;6.36;70.22;102475.44;7368755;19;20014;-61
2022/02/11 09:58:37;;;;;;;0.00;0.00;;;;;;;6.49;69.57;102481.81;7360193;19;20002;-60
2022/02/11 10:01:03;;;;;;;0.10;0.10;;;;;;;6.62;69.50;102485.53;7368397;19;20027;-61
2022/02/11 10:03:30;;;;;;;0.00;0.00;;;;;;;6.76;69.34;102477.22;7368069;19;20383;-60
2022/02/11 10:05:55;;;;;;;0.00;0.00;;;;;;;6.90;69.14;102484.44;7361649;19;20365;-61
2022/02/11 10:08:23;;;;;;;0.00;0.00;;;;;;;7.02;68.70;102480.34;7370558;19;20017;-60
2022/02/11 10:10:52;;;;;;;;;;;;;;;7.23;70.71;102476.44;7362559;19;20010;-60
2022/02/11 10:13:30;;;;;;;0.10;0.10;;;;;;;7.38;69.40;102474.13;7363820;19;19918;-60
2022/02/11 10:16:08;;;;;;;0.00;0.00;;;;;;;7.52;68.59;102462.25;7358166;19;20014;-60
2022/02/11 10:18:36;;;;;;;0.00;0.00;;;;;;;7.64;68.01;102460.72;7367963;19;20482;-60
2022/02/11 10:21:04;;;;;;;;;;;;;;;7.86;69.61;102460.25;7359823;19;20377;-59
2022/02/11 10:23:31;;;;;;;;;;;;;;;7.97;70.13;102466.50;7368066;19;19935;-61
2022/02/11 10:26:07;;;;;;;0.00;0.00;;;;;;;7.96;67.66;102461.28;7362427;19;19911;-61
2022/02/11 10:28:38;;;;;;;0.00;0.00;;;;;;;7.97;67.20;102455.22;7373456;19;20777;-60
2022/02/11 10:31:20;;;;;;;0.00;0.00;;;;;;;8.00;67.02;102448.31;7360822;19;20018;-60
2022/02/11 10:34:08;;;;;;;0.10;0.10;;;;;;;7.97;66.72;102439.63;7362683;19;20010;-60
2022/02/11 10:36:44;;;;;;;0.00;0.00;;;;;;;7.96;66.83;102433.56;7363121;19;20010;-60
2022/02/11 10:39:14;;;;;;;0.00;0.00;;;;;;;7.94;66.34;102430.03;7362480;19;20010;-61
2022/02/11 10:41:53;;;;;;;0.00;0.00;;;;;;;7.92;66.14;102421.34;7362206;19;20012;-61
2022/02/11 10:44:25;;;;;;;0.00;0.00;;;;;;;7.92;66.50;102420.47;7355734;19;20022;-60
2022/02/11 10:46:52;;;;;;;0.00;0.00;;;;;;;7.93;66.65;102417.88;7361712;19;20086;-60
2022/02/11 10:49:29;;;;;;;0.00;0.00;;;;;;;7.98;66.94;102420.56;7362104;19;20050;-60
2022/02/11 10:51:55;;;;;;;0.00;0.00;;;;;;;7.93;66.27;102415.28;7367076;19;20010;-61
2022/02/11 10:54:30;;;;;;;0.00;0.00;;;;;;;7.96;66.66;102410.13;7370828;19;20014;-61
2022/02/11 10:56:59;;;;;;;0.00;0.00;;;;;;;7.85;66.02;102383.06;7370072;19;20414;-61
2022/02/11 10:59:29;;;;;;;0.00;0.00;;;;;;;7.99;65.89;102402.38;7372283;19;20006;-60
2022/02/11 11:02:04;;;;;;;0.00;0.00;;;;;;;8.06;66.28;102399.03;7367427;19;20846;-61
2022/02/11 11:04:30;;;;;;;0.00;0.00;;;;;;;8.10;65.88;102399.91;7363391;19;20491;-60
2022/02/11 11:06:56;;;;;;;0.00;0.00;;;;;;;8.17;65.55;102398.31;7367847;19;20014;-60
2022/02/11 11:09:25;;;;;;;0.00;0.00;;;;;;;8.25;65.89;102396.66;7365459;19;20025;-60
2022/02/11 11:11:55;;;;;;;0.00;0.00;;;;;;;8.29;65.26;102390.66;7373087;19;20030;-60
2022/02/11 11:14:32;;;;;;;0.00;0.00;;;;;;;8.39;66.03;102397.75;4011900;19;10001510;-61
2022/02/11 11:17:01;;;;;;;0.00;0.00;;;;;;;8.42;65.35;102383.94;5017891;19;10001196;-61
2022/02/11 11:19:32;;;;;;;0.00;0.00;;;;;;;8.51;65.55;102387.50;7370788;19;20006;-60
2022/02/11 11:22:11;;;;;;;0.00;0.00;;;;;;;8.56;65.60;102380.63;7357502;19;20007;-61
2022/02/11 11:25:02;;;;;;;0.00;0.00;;;;;;;8.70;66.71;102382.53;7361143;19;20026;-61
2022/02/11 11:27:48;;;;;;;0.00;0.00;;;;;;;8.77;66.78;102376.56;7264630;19;2004476;-60
2022/02/11 11:30:34;;;;;;;0.00;0.00;;;;;;;8.92;66.62;102374.13;7341492;19;20044;-61
2022/02/11 11:33:12;;;;;;;0.10;0.10;;;;;;;9.08;65.64;102369.94;7364461;19;20007;-61
2022/02/11 11:36:04;;;;;;;;;;;;;;;9.33;68.19;102365.84;7355554;19;20002;-60
2022/02/11 11:38:39;;;;;;;0.00;0.00;;;;;;;9.59;64.77;102361.72;7254171;19;2005157;-61
2022/02/11 11:41:15;;;;;;;0.00;0.00;;;;;;;9.83;63.71;102358.44;7357262;19;20022;-60
2022/02/11 11:43:55;;;;;;;0.10;0.10;;;;;;;10.04;63.12;102355.09;7359117;19;20007;-60
2022/02/11 11:46:20;;;;;;;0.00;0.00;;;;;;;10.30;63.63;102354.38;7362923;19;20018;-60
2022/02/11 11:48:53;;;;;;;0.00;0.00;;;;;;;10.54;61.53;102344.03;7366787;19;20014;-60
2022/02/11 11:51:21;;;;;;;0.00;0.00;;;;;;;10.86;61.75;102335.44;7356402;19;20031;-60
2022/02/11 11:53:47;;;;;;;0.00;0.00;;;;;;;11.08;63.09;102342.44;7365521;19;20022;-60
2022/02/11 11:56:32;;;;;;;0.00;0.00;;;;;;;11.62;63.15;102325.00;7363871;19;20037;-60
2022/02/11 11:59:12;;;;;;;0.10;0.10;;;;;;;11.92;62.83;102324.13;7363090;19;20006;-60
2022/02/11 12:02:12;;;;;;;0.10;0.10;;;;;;;12.12;60.06;102318.84;7369973;19;20485;-61
2022/02/11 12:04:45;;;;;;;0.05;0.05;;;;;;;12.27;57.00;102325.78;7270626;19;2004129;-61
2022/02/11 12:07:13;;;;;;;0.10;0.10;;;;;;;12.43;55.86;102324.81;7352409;19;20070;-60
2022/02/11 12:09:42;;;;;;;0.00;0.00;;;;;;;12.54;54.14;102314.28;7359051;19;20098;-60
2022/02/11 12:12:09;;;;;;;0.10;0.10;;;;;;;12.64;54.78;102302.88;7365831;19;20102;-60
2022/02/11 12:14:36;;;;;;;;;;;;;;;12.94;60.68;102308.81;7363746;19;20030;-60
2022/02/11 12:17:03;;;;;;;0.00;0.00;;;;;;;12.99;56.15;102301.78;7350595;19;20768;-60
2022/02/11 12:19:29;;;;;;;;;;;;;;;13.22;60.01;102305.13;7365824;19;20002;-60
2022/02/11 12:21:56;;;;;;;0.00;0.00;;;;;;;13.13;52.81;102281.56;7360889;19;20384;-60
2022/02/11 12:27:21;;;;;;;0.10;0.10;;;;;;;13.24;52.44;102292.88;7355755;19;20017;-61
2022/02/11 12:29:49;;;;;;;0.10;0.10;;;;;;;13.27;52.52;102285.84;7358401;19;20018;-60
2022/02/11 12:32:16;;;;;;;0.00;0.00;;;;;;;13.29;54.06;102284.97;7364551;19;20469;-60
2022/02/11 12:34:53;;;;;;;0.00;0.00;;;;;;;13.34;54.75;102282.31;7345683;19;20029;-60
2022/02/11 12:37:19;;;;;;;0.10;0.10;;;;;;;13.38;53.51;102278.75;7356965;19;20010;-61
2022/02/11 12:39:46;;;;;;;0.10;0.10;;;;;;;13.57;53.41;102272.44;7361759;19;20011;-61
2022/02/11 12:42:19;;;;;;;0.00;0.00;;;;;;;13.91;53.51;102258.97;7360848;19;20010;-60
2022/02/11 12:44:44;;;;;;;0.10;0.10;;;;;;;14.13;52.00;102260.44;7362599;19;20007;-61
2022/02/11 12:47:10;;;;;;;0.00;0.00;;;;;;;14.38;52.56;102254.88;7370799;19;20458;-61
2022/02/11 12:49:44;;;;;;;0.10;0.10;;;;;;;14.71;52.54;102243.03;7375467;19;20002;-61
2022/02/11 12:52:10;;;;;;;0.00;0.00;;;;;;;14.95;51.98;102241.75;7377395;19;20593;-60
2022/02/11 12:54:35;;;;;;;0.00;0.00;;;;;;;15.18;49.24;102231.75;7366128;19;20018;-60
2022/02/11 12:57:04;;;;;;;0.10;0.10;;;;;;;15.39;49.18;102237.50;7369053;19;20412;-61
2022/02/11 12:59:30;;;;;;;0.10;0.10;;;;;;;15.47;48.73;102230.34;7367168;19;20018;-60
2022/02/11 13:01:56;;;;;;;0.00;0.00;;;;;;;15.65;51.35;102218.63;7367574;19;20014;-60
2022/02/11 13:04:21;;;;;;;0.10;0.10;;;;;;;15.83;47.55;102224.41;7367263;19;20014;-60
2022/02/11 13:06:47;;;;;;;0.10;0.10;;;;;;;15.99;46.44;102203.00;7361474;19;20011;-60
2022/02/11 13:09:13;;;;;;;0.10;0.10;;;;;;;16.00;45.86;102205.59;7365436;19;20010;-61
2022/02/11 13:11:41;;;;;;;0.10;0.10;;;;;;;15.99;46.18;102200.38;7365609;19;20046;-60
2022/02/11 13:14:08;;;;;;;0.10;0.10;;;;;;;15.99;45.70;102192.47;7368407;19;20679;-61
2022/02/11 13:16:35;;;;;;;0.10;0.10;;;;;;;16.07;46.96;102185.28;7363613;19;20102;-61
2022/02/11 13:19:15;;;;;;;0.10;0.10;;;;;;;16.23;49.62;102191.94;7366895;19;20006;-61
2022/02/11 13:21:41;;;;;;;0.10;0.10;;;;;;;16.24;44.78;102177.84;7366605;19;20086;-61
2022/02/11 13:24:07;;;;;;;0.10;0.10;;;;;;;16.26;43.71;102165.50;7369828;19;20588;-61
2022/02/11 13:26:33;;;;;;;0.10;0.10;;;;;;;16.30;44.03;102167.16;7369162;19;20070;-61
2022/02/11 13:28:59;;;;;;;0.10;0.10;;;;;;;16.40;45.11;102162.53;7360216;19;20550;-60
2022/02/11 13:31:24;;;;;;;0.00;0.00;;;;;;;16.46;43.65;102156.25;7366220;19;20082;-60
2022/02/11 13:34:11;;;;;;;0.10;0.10;;;;;;;16.56;47.43;102155.13;7369453;19;20010;-60
2022/02/11 13:36:37;;;;;;;0.10;0.10;;;;;;;16.55;44.31;102140.22;7256007;19;2004418;-60
2022/02/11 13:39:03;;;;;;;0.10;0.10;;;;;;;16.62;43.98;102147.06;7311189;19;20032;-60
2022/02/11 13:41:35;;;;;;;0.10;0.10;;;;;;;16.74;45.61;102135.38;1113037;19;10002076;-57
2022/02/11 13:44:07;;;;;;;0.10;0.10;;;;;;;16.67;42.75;102125.84;7368752;19;20053;-60
2022/02/11 13:46:36;;;;;;;0.00;0.00;;;;;;;16.59;45.73;102126.91;7364837;19;20370;-60
2022/02/11 13:49:07;;;;;;;0.10;0.10;;;;;;;16.52;43.44;102132.38;7364555;19;20034;-59
2022/02/11 13:51:33;;;;;;;0.10;0.10;;;;;;;16.41;43.53;102121.22;7360948;19;20421;-60
2022/02/11 13:54:13;;;;;;;0.05;0.05;;;;;;;16.32;44.97;102112.66;7368630;19;20014;-60
2022/02/11 13:56:40;;;;;;;0.10;0.10;;;;;;;16.16;43.39;102105.97;7347420;19;23062;-60
2022/02/11 13:59:14;;;;;;;0.00;0.00;;;;;;;16.07;43.94;102114.13;7368553;19;20022;-60
2022/02/11 14:01:41;;;;;;;0.00;0.00;;;;;;;15.90;44.80;102105.72;7368928;19;20037;-60
2022/02/11 14:04:09;;;;;;;0.10;0.10;;;;;;;15.73;44.24;102099.06;7356373;19;20347;-60
2022/02/11 14:06:36;;;;;;;0.10;0.10;;;;;;;15.54;43.94;102105.59;7367841;19;20014;-61
2022/02/11 14:09:25;;;;;;;0.10;0.10;;;;;;;15.34;45.26;102089.34;7365703;19;21354;-61
2022/02/11 14:11:50;;;;;;;0.10;0.10;;;;;;;14.99;45.41;102090.88;7255647;19;2004411;-60
2022/02/11 14:14:21;;;;;;;0.10;0.10;;;;;;;14.85;45.16;102082.38;7360831;19;20014;-60
2022/02/11 14:16:48;;;;;;;0.10;0.10;;;;;;;14.58;45.86;102068.84;7362168;19;20466;-59
2022/02/11 14:19:24;;;;;;;0.00;0.00;;;;;;;14.47;46.24;102086.53;7358273;19;20032;-60
2022/02/11 14:21:50;;;;;;;0.10;0.10;;;;;;;14.26;46.01;102082.50;7366862;19;20006;-61
2022/02/11 14:24:16;;;;;;;0.00;0.00;;;;;;;14.06;46.29;102058.28;7371293;19;20094;-60
2022/02/11 14:26:41;;;;;;;0.00;0.00;;;;;;;13.94;46.24;102069.84;7361923;19;20074;-60
2022/02/11 14:29:07;;;;;;;0.00;0.00;;;;;;;13.74;46.09;102051.75;7361245;19;20006;-61
2022/02/11 14:31:32;;;;;;;0.00;0.00;;;;;;;13.41;47.09;102037.34;7363409;19;20034;-61
2022/02/11 14:33:58;;;;;;;0.00;0.00;;;;;;;13.38;46.77;102066.22;7374989;19;20018;-60
2022/02/11 14:36:23;;;;;;;0.00;0.00;;;;;;;13.22;47.79;102045.41;7365522;19;20018;-60
2022/02/11 14:38:49;;;;;;;0.00;0.00;;;;;;;13.06;47.94;102045.59;7368759;19;20022;-60
2022/02/11 14:43:59;;;;;;;0.00;0.00;;;;;;;12.73;48.17;102029.38;7369935;19;20020;-60
2022/02/11 14:46:25;;;;;;;0.08;0.08;;;;;;;12.60;48.90;102023.38;7363152;19;20013;-60
2022/02/11 14:48:52;;;;;;;0.00;0.00;;;;;;;12.29;49.67;101998.34;7362746;19;20102;-60
2022/02/11 14:51:17;;;;;;;0.10;0.10;;;;;;;12.39;49.81;102036.66;7360703;19;20037;-57
2022/02/11 14:53:43;;;;;;;0.08;0.08;;;;;;;12.31;50.17;102022.75;7363919;19;20006;-60
2022/02/11 14:56:08;;;;;;;0.10;0.10;;;;;;;12.29;50.30;102021.91;7342940;19;20017;-60
2022/02/11 14:58:34;;;;;;;0.05;0.05;;;;;;;12.25;50.44;101999.25;7361762;19;20014;-60
2022/02/11 15:01:00;;;;;;;0.00;0.00;;;;;;;12.19;51.11;102003.66;7356055;19;20010;-62
2022/02/11 15:03:26;;;;;;;0.00;0.00;;;;;;;12.25;51.60;101996.63;7364420;19;20010;-59
2022/02/11 15:05:52;;;;;;;0.00;0.00;;;;;;;12.30;51.71;102003.56;7361319;19;20026;-60
2022/02/11 15:08:17;;;;;;;0.10;0.10;;;;;;;12.38;51.13;101987.78;7357258;19;20121;-59
2022/02/11 15:10:43;;;;;;;0.00;0.00;;;;;;;12.42;51.19;101990.38;7366373;19;20086;-60
2022/02/11 15:13:09;;;;;;;0.00;0.00;;;;;;;12.43;51.17;101986.00;7360429;19;20066;-61
2022/02/11 15:15:40;;;;;;;0.10;0.10;;;;;;;12.44;51.23;101979.88;7361368;19;20010;-61
2022/02/11 15:18:07;;;;;;;0.00;0.00;;;;;;;12.45;51.07;101973.72;7360628;19;20687;-60
2022/02/11 15:20:40;;;;;;;0.00;0.00;;;;;;;12.51;51.57;101965.81;7362323;19;20010;-60
2022/02/11 15:23:05;;;;;;;0.00;0.00;;;;;;;12.49;51.12;101953.63;7360333;19;20482;-60
2022/02/11 15:25:31;;;;;;;0.00;0.00;;;;;;;12.47;51.11;101956.25;7365897;19;20014;-60
2022/02/11 15:27:57;;;;;;;0.08;0.08;;;;;;;12.41;51.33;101951.06;7367463;19;20007;-61